Terminal Aerodrome Forecast
Issued by NWS Cleveland, OH

Home | Current Version | Previous Version | Text Only | Print | Product List | Glossary On
Versions: 1 2 3 4 5 6 7 8 9 10 11 12 13 14 15 16 17 18
182
FTUS41 KCLE 251131
TAFYNG
TAF
KYNG 251131Z 2512/2612 18005KT P6SM SCT040 BKN200
     FM251500 22008KT P6SM VCSH BKN045 OVC100
     FM252000 24008KT P6SM SCT035 BKN100
     FM260400 VRB05KT P6SM SKC
      TEMPO 2609/2612 3SM BR=

USA.gov is the U.S. government's official web portal to all federal, state and local government web resources and services.